Time;durP1;ratioP1;P1;durP2;ratioP2;P2;SDS_P1;SDS_P2;PMS_P1;PMS_P2;Temp;Humidity;BMP_temperature;BMP_pressure;BME280_temperature;BME280_humidity;BME280_pressure;Samples;Min_cycle;Max_cycle;Signal;HPM_P1;HPM_P2
2022/09/19 00:01:16;;;;;;;5.75;2.00;;;;;;;;;;5046652;28;20397;-63
2022/09/19 00:03:44;;;;;;;3.80;1.58;;;;;;;;;;5046069;28;20025;-63
2022/09/19 00:06:12;;;;;;;7.47;1.75;;;;;;;;;;5046003;28;20110;-63
2022/09/19 00:08:39;;;;;;;3.65;1.65;;;;;;;;;;5046799;28;20065;-63
2022/09/19 00:11:06;;;;;;;3.20;1.60;;;;;;;;;;5046613;28;20044;-63
2022/09/19 00:13:33;;;;;;;4.68;1.58;;;;;;;;;;5046399;28;20040;-64
2022/09/19 00:15:58;;;;;;;4.05;1.48;;;;;;;;;;5046425;28;20025;-63
2022/09/19 00:18:24;;;;;;;3.63;1.80;;;;;;;;;;5046645;28;20060;-63
2022/09/19 00:20:50;;;;;;;5.18;1.70;;;;;;;;;;5049969;28;20033;-63
2022/09/19 00:26:06;;;;;;;4.60;2.40;;;;;;;;;;5041060;28;20036;-63
2022/09/19 00:28:32;;;;;;;5.25;2.38;;;;;;;;;;5065675;28;20032;-63
2022/09/19 00:30:59;;;;;;;3.95;1.88;;;;;;;;;;5050109;28;20029;-63
2022/09/19 00:33:27;;;;;;;6.63;1.63;;;;;;;;;;5049683;28;20494;-63
2022/09/19 00:35:54;;;;;;;3.20;1.48;;;;;;;;;;5049574;28;20029;-63
2022/09/19 00:38:24;;;;;;;3.53;1.60;;;;;;;;;;5049632;28;20081;-63
2022/09/19 00:40:50;;;;;;;4.55;1.60;;;;;;;;;;5049175;28;20045;-63
2022/09/19 00:43:18;;;;;;;7.75;1.80;;;;;;;;;;5048829;28;20021;-64
2022/09/19 00:45:45;;;;;;;6.40;1.60;;;;;;;;;;5050057;28;20052;-63
2022/09/19 00:48:12;;;;;;;7.00;2.17;;;;;;;;;;5049467;28;20518;-63
2022/09/19 00:50:38;;;;;;;5.72;1.83;;;;;;;;;;5049547;28;20033;-63
2022/09/19 00:53:10;;;;;;;4.72;2.03;;;;;;;;;;5048200;28;20033;-63
2022/09/19 00:55:37;;;;;;;6.07;2.05;;;;;;;;;;5035818;28;20033;-63
2022/09/19 00:58:20;;;;;;;5.25;1.77;;;;;;;;;;5030937;28;20029;-63
2022/09/19 01:00:47;;;;;;;8.10;2.15;;;;;;;;;;5049821;28;20017;-63
2022/09/19 01:03:13;;;;;;;4.15;1.70;;;;;;;;;;5041713;28;20025;-63
2022/09/19 01:05:48;;;;;;;3.35;1.48;;;;;;;;;;5042073;28;20045;-63
2022/09/19 01:08:48;;;;;;;3.17;1.60;;;;;;;;;;5054218;28;20476;-63
2022/09/19 01:11:38;;;;;;;6.28;1.50;;;;;;;;;;5054153;28;20048;-63
2022/09/19 01:14:09;;;;;;;6.47;1.92;;;;;;;;;;5049016;28;20500;-63
2022/09/19 01:16:42;;;;;;;5.57;1.65;;;;;;;;;;5047137;28;20112;-63
2022/09/19 01:19:29;;;;;;;4.68;1.73;;;;;;;;;;5048944;28;20103;-63
2022/09/19 01:22:23;;;;;;;2.85;1.45;;;;;;;;;;5049030;28;20013;-63
2022/09/19 01:24:48;;;;;;;3.88;1.73;;;;;;;;;;5048105;28;20457;-63
2022/09/19 01:27:23;;;;;;;4.15;1.63;;;;;;;;;;5048456;28;20033;-63
2022/09/19 01:29:54;;;;;;;4.95;1.60;;;;;;;;;;5048148;28;20055;-63
2022/09/19 01:32:31;;;;;;;2.85;1.48;;;;;;;;;;5046420;28;20033;-63
2022/09/19 01:35:02;;;;;;;2.88;1.40;;;;;;;;;;5039853;28;20107;-63
2022/09/19 01:37:34;;;;;;;3.65;1.70;;;;;;;;;;5028562;28;20037;-63
2022/09/19 01:40:03;;;;;;;3.47;1.63;;;;;;;;;;5028453;28;20053;-63
2022/09/19 01:42:28;;;;;;;6.18;1.55;;;;;;;;;;5028059;28;20091;-63
2022/09/19 01:44:54;;;;;;;4.30;1.40;;;;;;;;;;5032933;28;20032;-63
2022/09/19 01:47:51;;;;;;;5.18;1.58;;;;;;;;;;5046680;28;20090;-63
2022/09/19 01:50:34;;;;;;;2.80;1.45;;;;;;;;;;5048234;28;20725;-63
2022/09/19 01:53:11;;;;;;;4.10;1.27;;;;;;;;;;5063667;28;20414;-63
2022/09/19 01:56:19;;;;;;;5.43;1.67;;;;;;;;;;5054766;28;20028;-63
2022/09/19 01:59:01;;;;;;;4.00;1.40;;;;;;;;;;5025465;28;20033;-63
2022/09/19 02:01:51;;;;;;;2.55;1.35;;;;;;;;;;5028134;28;20029;-63
2022/09/19 02:04:20;;;;;;;4.32;1.60;;;;;;;;;;5059865;28;20017;-62
2022/09/19 02:07:07;;;;;;;4.25;1.50;;;;;;;;;;5047408;28;20025;-63
2022/09/19 02:09:38;;;;;;;4.22;1.23;;;;;;;;;;5047006;28;20052;-63
2022/09/19 02:12:05;;;;;;;4.35;1.60;;;;;;;;;;5047989;28;20033;-63
2022/09/19 02:14:35;;;;;;;4.55;1.27;;;;;;;;;;5047785;28;20517;-63
2022/09/19 02:17:11;;;;;;;3.10;1.50;;;;;;;;;;5047398;28;20110;-63
2022/09/19 02:19:42;;;;;;;5.70;1.63;;;;;;;;;;5047699;28;20036;-63
2022/09/19 02:22:20;;;;;;;3.60;1.60;;;;;;;;;;5047451;28;20406;-63
2022/09/19 02:24:47;;;;;;;8.07;1.63;;;;;;;;;;5045751;28;20021;-63
2022/09/19 02:27:20;;;;;;;5.40;1.52;;;;;;;;;;5027868;28;20034;-63
2022/09/19 02:29:54;;;;;;;2.78;1.20;;;;;;;;;;5038726;28;20025;-63
2022/09/19 02:32:21;;;;;;;7.55;1.58;;;;;;;;;;5047558;28;20033;-63
2022/09/19 02:34:49;;;;;;;3.58;1.40;;;;;;;;;;5042006;28;20041;-64
2022/09/19 02:37:21;;;;;;;5.57;1.50;;;;;;;;;;5045829;28;20095;-63
2022/09/19 02:40:00;;;;;;;3.05;1.15;;;;;;;;;;5047559;28;20056;-63
2022/09/19 02:42:34;;;;;;;3.55;1.38;;;;;;;;;;5046542;28;20041;-63
2022/09/19 02:45:17;;;;;;;4.50;1.20;;;;;;;;;;5047708;28;20533;-63
2022/09/19 02:48:30;;;;;;;5.05;1.90;;;;;;;;;;5042457;28;20427;-63
2022/09/19 02:51:04;;;;;;;3.20;1.20;;;;;;;;;;5036543;28;20217;-63
2022/09/19 02:53:38;;;;;;;3.25;1.35;;;;;;;;;;5044626;28;20041;-63
2022/09/19 02:56:04;;;;;;;2.42;1.20;;;;;;;;;;5031806;28;20518;-63
2022/09/19 02:58:45;;;;;;;5.28;1.30;;;;;;;;;;5043324;28;20507;-63
2022/09/19 03:01:17;;;;;;;3.50;1.33;;;;;;;;;;5027354;28;20021;-63
2022/09/19 03:04:14;;;;;;;3.10;1.45;;;;;;;;;;5027664;28;20060;-63
2022/09/19 03:06:56;;;;;;;2.78;1.17;;;;;;;;;;5047439;28;20037;-63
2022/09/19 03:09:25;;;;;;;3.65;1.17;;;;;;;;;;5027764;28;20052;-63
2022/09/19 03:11:58;;;;;;;3.40;1.15;;;;;;;;;;5026784;28;20034;-63
2022/09/19 03:14:23;;;;;;;;;;;;;;;;;;5027704;28;20770;-63
2022/09/19 03:16:56;;;;;;;1.92;1.10;;;;;;;;;;5026917;28;20405;-63
2022/09/19 03:19:23;;;;;;;1.17;0.80;;;;;;;;;;5027235;28;20053;-63
2022/09/19 03:21:52;;;;;;;2.60;1.20;;;;;;;;;;5027084;28;20028;-63
2022/09/19 03:24:17;;;;;;;3.92;1.20;;;;;;;;;;5042328;28;20037;-64
2022/09/19 03:26:43;;;;;;;3.65;1.10;;;;;;;;;;5008763;28;20120;-63
2022/09/19 03:29:09;;;;;;;3.90;1.52;;;;;;;;;;5012123;28;20506;-63
2022/09/19 03:31:34;;;;;;;1.08;0.88;;;;;;;;;;5030476;28;20029;-63
2022/09/19 03:34:00;;;;;;;2.63;1.23;;;;;;;;;;5047219;28;20021;-63
2022/09/19 03:36:26;;;;;;;4.85;1.10;;;;;;;;;;5046830;28;20033;-63
2022/09/19 03:38:51;;;;;;;4.00;1.35;;;;;;;;;;5046251;28;20049;-63
2022/09/19 03:41:19;;;;;;;5.10;1.30;;;;;;;;;;5045270;28;20106;-63
2022/09/19 03:43:45;;;;;;;7.43;1.20;;;;;;;;;;5047063;28;20045;-63
2022/09/19 03:46:14;;;;;;;2.08;1.10;;;;;;;;;;5045108;28;20168;-63
2022/09/19 03:48:41;;;;;;;4.07;1.52;;;;;;;;;;5047249;28;20032;-63
2022/09/19 03:51:07;;;;;;;5.72;1.70;;;;;;;;;;5046630;28;20037;-63
2022/09/19 03:53:33;;;;;;;4.07;1.40;;;;;;;;;;5050344;28;20174;-63
2022/09/19 03:55:59;;;;;;;1.95;1.20;;;;;;;;;;5049691;28;20238;-63
2022/09/19 03:58:25;;;;;;;4.43;1.27;;;;;;;;;;5050754;28;20504;-64
2022/09/19 04:00:50;;;;;;;3.95;1.90;;;;;;;;;;5050899;28;20035;-63
2022/09/19 04:03:23;;;;;;;3.13;1.40;;;;;;;;;;5050350;28;20033;-63
2022/09/19 04:05:48;;;;;;;4.83;1.60;;;;;;;;;;5048433;28;20044;-63
2022/09/19 04:08:13;;;;;;;4.35;1.27;;;;;;;;;;5050369;28;20272;-63
2022/09/19 04:10:42;;;;;;;3.20;1.40;;;;;;;;;;5050206;28;20032;-63
2022/09/19 04:13:08;;;;;;;8.13;1.42;;;;;;;;;;5050042;28;20104;-63
2022/09/19 04:15:33;;;;;;;3.92;1.80;;;;;;;;;;5065836;28;20025;-63
2022/09/19 04:17:58;;;;;;;5.70;1.40;;;;;;;;;;5049813;28;20036;-63
2022/09/19 04:20:27;;;;;;;5.10;1.70;;;;;;;;;;5050093;28;20040;-63
2022/09/19 04:22:52;;;;;;;3.65;1.52;;;;;;;;;;5047101;28;20025;-63
2022/09/19 04:25:17;;;;;;;5.28;1.50;;;;;;;;;;5049694;28;20100;-63
2022/09/19 04:27:44;;;;;;;2.42;1.40;;;;;;;;;;5050511;28;20025;-63
2022/09/19 04:30:10;;;;;;;2.83;1.35;;;;;;;;;;5049277;28;20044;-63
2022/09/19 04:32:41;;;;;;;2.70;1.10;;;;;;;;;;5046944;28;20037;-63
2022/09/19 04:35:06;;;;;;;6.80;1.60;;;;;;;;;;5048784;28;20505;-63
2022/09/19 04:37:32;;;;;;;3.20;1.30;;;;;;;;;;5049852;28;20040;-63
2022/09/19 04:39:57;;;;;;;3.85;1.50;;;;;;;;;;5047523;28;20430;-63
2022/09/19 04:42:22;;;;;;;3.03;1.40;;;;;;;;;;5047625;28;20061;-63
2022/09/19 04:44:47;;;;;;;3.47;1.50;;;;;;;;;;5049470;28;20094;-63
2022/09/19 04:47:14;;;;;;;2.92;1.42;;;;;;;;;;5047800;28;20060;-63
2022/09/19 04:49:39;;;;;;;7.38;1.42;;;;;;;;;;5048019;28;20025;-63
2022/09/19 04:52:12;;;;;;;6.05;1.50;;;;;;;;;;5047632;28;20626;-63
2022/09/19 04:54:37;;;;;;;4.57;1.90;;;;;;;;;;5028274;28;20072;-63
2022/09/19 04:57:06;;;;;;;8.23;1.60;;;;;;;;;;5038537;28;20788;-63
2022/09/19 04:59:33;;;;;;;2.90;1.40;;;;;;;;;;5047853;28;20061;-63
2022/09/19 05:02:00;;;;;;;5.18;1.48;;;;;;;;;;5048951;28;20091;-63
2022/09/19 05:04:26;;;;;;;7.82;1.50;;;;;;;;;;5048606;28;20049;-63
2022/09/19 05:06:51;;;;;;;2.92;1.30;;;;;;;;;;5049387;28;20048;-63
2022/09/19 05:09:17;;;;;;;4.45;1.38;;;;;;;;;;5054683;28;20695;-63
2022/09/19 05:11:46;;;;;;;4.47;1.60;;;;;;;;;;5061827;28;20032;-63
2022/09/19 05:14:12;;;;;;;6.32;1.85;;;;;;;;;;5067317;28;20059;-63
2022/09/19 05:16:37;;;;;;;5.40;1.50;;;;;;;;;;5068482;28;20578;-63
2022/09/19 05:19:02;;;;;;;4.03;1.48;;;;;;;;;;5067974;28;20028;-63
2022/09/19 05:21:28;;;;;;;2.95;1.40;;;;;;;;;;5068318;28;20066;-63
2022/09/19 05:23:54;;;;;;;6.70;1.90;;;;;;;;;;5060826;28;20032;-63
2022/09/19 05:26:19;;;;;;;6.18;1.75;;;;;;;;;;5053536;28;20033;-63
2022/09/19 05:28:45;;;;;;;6.07;1.42;;;;;;;;;;5048749;28;20052;-63
2022/09/19 05:31:12;;;;;;;4.22;1.60;;;;;;;;;;5047709;28;20025;-62
2022/09/19 05:33:38;;;;;;;2.50;1.30;;;;;;;;;;5049048;28;20025;-62
2022/09/19 05:36:04;;;;;;;5.47;1.90;;;;;;;;;;5044285;28;20047;-62
2022/09/19 05:38:31;;;;;;;8.20;3.10;;;;;;;;;;5048078;28;20052;-63
2022/09/19 05:40:58;;;;;;;7.53;2.40;;;;;;;;;;5047840;28;20048;-62
2022/09/19 05:43:25;;;;;;;5.82;2.80;;;;;;;;;;5045625;28;20041;-62
2022/09/19 05:45:52;;;;;;;5.53;2.45;;;;;;;;;;5049169;28;20017;-62
2022/09/19 05:48:18;;;;;;;10.15;2.78;;;;;;;;;;5046966;28;20043;-62
2022/09/19 05:50:43;;;;;;;7.03;3.72;;;;;;;;;;5049449;28;20044;-62
2022/09/19 05:55:54;;;;;;;5.40;2.28;;;;;;;;;;5049846;28;20078;-62
2022/09/19 05:58:20;;;;;;;6.43;2.95;;;;;;;;;;5049104;28;20033;-62
2022/09/19 06:00:46;;;;;;;8.75;2.67;;;;;;;;;;5048252;28;20044;-62
2022/09/19 06:03:17;;;;;;;4.90;1.83;;;;;;;;;;5049388;28;20033;-62
2022/09/19 06:05:45;;;;;;;11.55;4.07;;;;;;;;;;5048832;28;20130;-62
2022/09/19 06:08:13;;;;;;;10.38;4.38;;;;;;;;;;5048424;28;20082;-62
2022/09/19 06:10:41;;;;;;;13.07;3.08;;;;;;;;;;5048548;28;20033;-62
2022/09/19 06:13:11;;;;;;;12.55;3.33;;;;;;;;;;5048331;28;20118;-62
2022/09/19 06:15:37;;;;;;;9.57;3.65;;;;;;;;;;5063386;28;20027;-62
2022/09/19 06:18:02;;;;;;;8.43;3.75;;;;;;;;;;5046775;28;20124;-62
2022/09/19 06:20:27;;;;;;;12.02;3.88;;;;;;;;;;5054061;28;20036;-62
2022/09/19 06:23:03;;;;;;;9.40;3.97;;;;;;;;;;5052294;28;20032;-62
2022/09/19 06:25:33;;;;;;;11.02;4.07;;;;;;;;;;5048227;28;20128;-62
2022/09/19 06:28:02;;;;;;;9.68;4.28;;;;;;;;;;5049710;28;20563;-62
2022/09/19 06:30:27;;;;;;;8.02;2.95;;;;;;;;;;5045205;28;20025;-62
2022/09/19 06:32:53;;;;;;;10.20;3.15;;;;;;;;;;5033088;28;20033;-62
2022/09/19 06:35:20;;;;;;;11.63;3.92;;;;;;;;;;5028311;28;20038;-62
2022/09/19 06:37:47;;;;;;;11.18;4.28;;;;;;;;;;5037303;28;20028;-63
2022/09/19 06:40:13;;;;;;;11.88;3.53;;;;;;;;;;5031546;28;20088;-63
2022/09/19 06:42:39;;;;;;;19.80;4.13;;;;;;;;;;5027781;28;20509;-62
2022/09/19 06:45:07;;;;;;;7.00;2.72;;;;;;;;;;5036946;28;20077;-62
2022/09/19 06:47:33;;;;;;;11.13;3.33;;;;;;;;;;5035289;28;20041;-63
2022/09/19 06:50:01;;;;;;;9.40;3.10;;;;;;;;;;5028255;28;20782;-63
2022/09/19 06:52:27;;;;;;;15.52;3.42;;;;;;;;;;5027154;28;20041;-62
2022/09/19 06:54:53;;;;;;;12.20;3.47;;;;;;;;;;5027720;28;20139;-62
2022/09/19 06:57:18;;;;;;;13.65;2.63;;;;;;;;;;5039188;28;20535;-62
2022/09/19 06:59:44;;;;;;;14.60;2.88;;;;;;;;;;5044856;28;20052;-62
2022/09/19 07:02:10;;;;;;;6.47;2.42;;;;;;;;;;5045997;28;20399;-63
2022/09/19 07:04:36;;;;;;;4.90;2.40;;;;;;;;;;5047865;28;20051;-63
2022/09/19 07:07:01;;;;;;;6.38;2.72;;;;;;;;;;5045973;28;21255;-63
2022/09/19 07:09:27;;;;;;;7.93;3.03;;;;;;;;;;5046611;28;20531;-63
2022/09/19 07:11:56;;;;;;;8.43;2.75;;;;;;;;;;5048140;28;20398;-63
2022/09/19 07:14:21;;;;;;;7.68;3.28;;;;;;;;;;5045405;28;20802;-62
2022/09/19 07:16:47;;;;;;;19.40;3.95;;;;;;;;;;5045430;28;20041;-63
2022/09/19 07:19:12;;;;;;;12.00;2.65;;;;;;;;;;5047182;28;20068;-63
2022/09/19 07:21:37;;;;;;;8.57;2.33;;;;;;;;;;5047300;28;20047;-63
2022/09/19 07:24:04;;;;;;;8.40;2.97;;;;;;;;;;5047240;28;20021;-62
2022/09/19 07:26:30;;;;;;;16.42;4.03;;;;;;;;;;5047259;28;20041;-63
2022/09/19 07:28:55;;;;;;;11.88;4.15;;;;;;;;;;5045694;28;20051;-63
2022/09/19 07:31:20;;;;;;;12.88;4.68;;;;;;;;;;5051497;28;20076;-63
2022/09/19 07:33:47;;;;;;;14.43;5.53;;;;;;;;;;5056963;28;20489;-63
2022/09/19 07:36:12;;;;;;;9.20;2.13;;;;;;;;;;5072508;28;20119;-62
2022/09/19 07:38:38;;;;;;;9.05;2.47;;;;;;;;;;5071184;28;20120;-63
2022/09/19 07:41:04;;;;;;;7.32;2.25;;;;;;;;;;5061138;28;20072;-63
2022/09/19 07:43:30;;;;;;;8.55;2.50;;;;;;;;;;5051260;28;20391;-63
2022/09/19 07:45:55;;;;;;;7.63;2.85;;;;;;;;;;5051435;28;20140;-64
2022/09/19 07:48:21;;;;;;;6.13;2.47;;;;;;;;;;5050432;28;20512;-62
2022/09/19 07:50:50;;;;;;;7.78;2.95;;;;;;;;;;5050549;28;20486;-63
2022/09/19 07:53:17;;;;;;;10.60;2.70;;;;;;;;;;5050993;28;20037;-63
2022/09/19 07:55:47;;;;;;;6.93;2.63;;;;;;;;;;5051295;28;20518;-63
2022/09/19 07:58:13;;;;;;;5.82;2.40;;;;;;;;;;5051036;28;20560;-63
2022/09/19 08:00:39;;;;;;;11.90;3.00;;;;;;;;;;5051621;28;20021;-63
2022/09/19 08:03:09;;;;;;;7.43;2.90;;;;;;;;;;5050815;28;20029;-61
2022/09/19 08:05:37;;;;;;;7.53;2.33;;;;;;;;;;5050866;28;20037;-61
2022/09/19 08:08:04;;;;;;;13.00;2.60;;;;;;;;;;5050343;28;20770;-61
2022/09/19 08:10:30;;;;;;;11.55;2.63;;;;;;;;;;5049182;28;20037;-61
2022/09/19 08:13:03;;;;;;;7.95;2.85;;;;;;;;;;5048830;28;20044;-60
2022/09/19 08:15:30;;;;;;;5.55;2.47;;;;;;;;;;5049903;28;20025;-60
2022/09/19 08:18:01;;;;;;;8.30;2.30;;;;;;;;;;5045706;28;20021;-60
2022/09/19 08:20:28;;;;;;;7.57;2.17;;;;;;;;;;5046949;28;20570;-60
2022/09/19 08:22:59;;;;;;;7.57;2.35;;;;;;;;;;5044338;28;20044;-60
2022/09/19 08:25:26;;;;;;;5.70;2.08;;;;;;;;;;5050293;28;20025;-60
2022/09/19 08:27:52;;;;;;;8.65;2.10;;;;;;;;;;5050351;28;20106;-60
2022/09/19 08:30:19;;;;;;;7.50;2.28;;;;;;;;;;5051488;28;20039;-61
2022/09/19 08:32:45;;;;;;;11.00;3.10;;;;;;;;;;5050217;28;20029;-60
2022/09/19 08:35:11;;;;;;;6.80;2.03;;;;;;;;;;5050335;28;20049;-60
2022/09/19 08:37:36;;;;;;;7.80;2.75;;;;;;;;;;5049878;28;20078;-60
2022/09/19 08:40:16;;;;;;;9.63;2.05;;;;;;;;;;5048717;28;20068;-60
2022/09/19 08:42:57;;;;;;;4.65;1.80;;;;;;;;;;5066499;28;20047;-60
2022/09/19 08:46:03;;;;;;;5.70;1.80;;;;;;;;;;5070427;28;20131;-60
2022/09/19 08:48:53;;;;;;;6.03;2.13;;;;;;;;;;5070058;28;20025;-60
2022/09/19 08:52:03;;;;;;;7.95;2.03;;;;;;;;;;5070692;28;20024;-60
2022/09/19 08:54:40;;;;;;;8.93;2.00;;;;;;;;;;5060946;28;20056;-61
2022/09/19 08:57:16;;;;;;;7.63;1.92;;;;;;;;;;5058220;28;20469;-60
2022/09/19 08:59:43;;;;;;;14.18;2.05;;;;;;;;;;5050040;28;20579;-61
2022/09/19 09:02:35;;;;;;;3.03;1.38;;;;;;;;;;5040952;28;20048;-60
2022/09/19 09:05:01;;;;;;;4.25;1.40;;;;;;;;;;5041555;28;20044;-60
2022/09/19 09:07:51;;;;;;;6.07;1.70;;;;;;;;;;5046988;28;20043;-60
2022/09/19 09:10:31;;;;;;;5.75;1.58;;;;;;;;;;5048796;28;20041;-60
2022/09/19 09:13:35;;;;;;;4.05;1.25;;;;;;;;;;5047491;28;20037;-60
2022/09/19 09:16:27;;;;;;;10.48;2.40;;;;;;;;;;5048727;28;20040;-60
2022/09/19 09:19:17;;;;;;;3.92;1.00;;;;;;;;;;5049540;28;20044;-60
2022/09/19 09:21:59;;;;;;;13.88;1.25;;;;;;;;;;5048829;28;20933;-60
2022/09/19 09:24:44;;;;;;;4.63;1.10;;;;;;;;;;5049336;28;20033;-60
2022/09/19 09:27:15;;;;;;;6.10;1.42;;;;;;;;;;5029912;28;20125;-60
2022/09/19 09:29:45;;;;;;;3.10;1.10;;;;;;;;;;5028813;28;20664;-61
2022/09/19 09:32:15;;;;;;;3.42;1.38;;;;;;;;;;5029009;28;20037;-60
2022/09/19 09:34:54;;;;;;;7.22;1.15;;;;;;;;;;5054515;28;20083;-60
2022/09/19 09:37:35;;;;;;;4.82;1.30;;;;;;;;;;5053903;28;20047;-60
2022/09/19 09:41:44;;;;;;;4.18;1.00;;;;;;;;;;5047546;28;20060;-60
2022/09/19 09:43:05;;;;;;;3.15;1.10;;;;;;;;;;5043300;28;20045;-60
2022/09/19 09:45:36;;;;;;;3.67;0.80;;;;;;;;;;5046912;28;20485;-61
2022/09/19 09:48:14;;;;;;;3.47;0.90;;;;;;;;;;5048650;28;20032;-60
2022/09/19 09:50:47;;;;;;;3.17;1.08;;;;;;;;;;5044227;28;20064;-60
2022/09/19 09:53:58;;;;;;;4.25;0.90;;;;;;;;;;5046857;28;20040;-60
2022/09/19 09:56:45;;;;;;;2.97;1.17;;;;;;;;;;5052910;28;20040;-60
2022/09/19 10:05:54;;;;;;;3.88;0.70;;;;;;;;;;5048055;28;20068;-60
2022/09/19 10:08:33;;;;;;;3.85;1.00;;;;;;;;;;5047700;28;20037;-60
2022/09/19 10:11:18;;;;;;;6.30;1.10;;;;;;;;;;5047703;28;20526;-60
2022/09/19 10:13:52;;;;;;;4.10;0.93;;;;;;;;;;5054132;28;20064;-60
2022/09/19 10:16:18;;;;;;;5.00;1.13;;;;;;;;;;5046095;28;20041;-60
2022/09/19 10:18:55;;;;;;;3.72;1.15;;;;;;;;;;5046838;28;20033;-60
2022/09/19 10:21:20;;;;;;;3.92;1.33;;;;;;;;;;5045078;28;20028;-60
2022/09/19 10:23:46;;;;;;;1.75;0.85;;;;;;;;;;5047597;28;20013;-60
2022/09/19 10:26:19;;;;;;;4.90;1.35;;;;;;;;;;5046067;28;20413;-60
2022/09/19 10:28:53;;;;;;;;;;;;;;;;;;5035327;28;20033;-60
2022/09/19 10:31:34;;;;;;;4.70;1.20;;;;;;;;;;5026442;28;19917;-61
2022/09/19 10:34:04;;;;;;;6.72;1.60;;;;;;;;;;5026525;28;20051;-60
2022/09/19 10:36:33;;;;;;;1.08;0.85;;;;;;;;;;5026221;28;20025;-60
2022/09/19 10:39:06;;;;;;;4.82;1.20;;;;;;;;;;5036288;28;20040;-61
2022/09/19 10:41:34;;;;;;;4.32;1.05;;;;;;;;;;5034959;28;20060;-60
2022/09/19 10:44:01;;;;;;;5.97;1.00;;;;;;;;;;5025041;28;20091;-60
2022/09/19 10:46:36;;;;;;;5.05;1.20;;;;;;;;;;5026345;28;20037;-60
2022/09/19 10:49:05;;;;;;;8.23;1.45;;;;;;;;;;5026254;28;20041;-60
2022/09/19 10:51:40;;;;;;;4.95;1.00;;;;;;;;;;5026271;28;20410;-60
2022/09/19 10:54:11;;;;;;;3.50;1.00;;;;;;;;;;5026692;28;20407;-60
2022/09/19 10:56:39;;;;;;;3.42;1.00;;;;;;;;;;5026114;28;20434;-60
2022/09/19 10:59:11;;;;;;;5.25;1.00;;;;;;;;;;5040977;28;20082;-60
2022/09/19 11:01:38;;;;;;;0.88;0.65;;;;;;;;;;5044050;28;20040;-60
2022/09/19 11:04:22;;;;;;;3.13;0.90;;;;;;;;;;5045174;28;20041;-60
2022/09/19 11:06:58;;;;;;;6.50;0.98;;;;;;;;;;5020980;28;20033;-60
2022/09/19 11:09:33;;;;;;;3.72;1.02;;;;;;;;;;5041265;28;20104;-60
2022/09/19 11:12:09;;;;;;;3.00;1.00;;;;;;;;;;5027001;28;20017;-60
2022/09/19 11:14:39;;;;;;;2.80;1.00;;;;;;;;;;5026980;28;20041;-61
2022/09/19 11:17:29;;;;;;;2.85;0.95;;;;;;;;;;5040764;28;20126;-60
2022/09/19 11:20:30;;;;;;;7.60;1.10;;;;;;;;;;5033302;28;20041;-60
2022/09/19 11:23:17;;;;;;;6.18;0.98;;;;;;;;;;5051878;28;20033;-60
2022/09/19 11:25:45;;;;;;;4.32;1.00;;;;;;;;;;5038430;28;20033;-60
2022/09/19 11:28:35;;;;;;;4.05;1.20;;;;;;;;;;5046372;28;20055;-60
2022/09/19 11:31:17;;;;;;;7.30;1.55;;;;;;;;;;5044783;28;20538;-60
2022/09/19 11:33:56;;;;;;;4.07;1.05;;;;;;;;;;5041510;28;20091;-60
2022/09/19 11:36:44;;;;;;;1.02;0.90;;;;;;;;;;5049938;28;20646;-60
2022/09/19 11:39:19;;;;;;;7.38;1.40;;;;;;;;;;5026222;28;20044;-60
2022/09/19 11:42:10;;;;;;;12.77;1.45;;;;;;;;;;5045998;28;20079;-60
2022/09/19 11:44:52;;;;;;;4.65;1.23;;;;;;;;;;5026136;28;20044;-60
2022/09/19 11:47:34;;;;;;;5.22;1.35;;;;;;;;;;5026156;28;20141;-61
2022/09/19 11:50:32;;;;;;;1.77;1.23;;;;;;;;;;5039305;28;20041;-60
2022/09/19 11:53:19;;;;;;;1.48;0.85;;;;;;;;;;5045947;28;20047;-60
2022/09/19 11:56:36;;;;;;;4.28;0.80;;;;;;;;;;5045333;28;20087;-60
2022/09/19 11:59:18;;;;;;;1.65;1.00;;;;;;;;;;5030534;28;20038;-60
2022/09/19 12:02:04;;;;;;;3.65;1.17;;;;;;;;;;5024628;28;20179;-60
2022/09/19 12:04:59;;;;;;;2.30;0.90;;;;;;;;;;5027187;28;20061;-60
2022/09/19 12:07:38;;;;;;;3.55;1.23;;;;;;;;;;5045041;28;20037;-60
2022/09/19 12:10:20;;;;;;;7.03;1.42;;;;;;;;;;5040410;28;20048;-60
2022/09/19 12:13:02;;;;;;;7.45;1.30;;;;;;;;;;5026472;28;20040;-60
2022/09/19 12:15:32;;;;;;;2.40;1.20;;;;;;;;;;5047271;28;20715;-60
2022/09/19 12:18:39;;;;;;;3.58;1.40;;;;;;;;;;5045589;28;20028;-61
2022/09/19 12:21:07;;;;;;;4.45;1.30;;;;;;;;;;5045358;28;20598;-60
2022/09/19 12:26:32;;;;;;;3.47;1.00;;;;;;;;;;5047926;28;20055;-60
2022/09/19 12:29:15;;;;;;;3.97;1.25;;;;;;;;;;5049369;28;20040;-60
2022/09/19 12:31:45;;;;;;;3.70;1.00;;;;;;;;;;5046983;28;20469;-61
2022/09/19 12:34:32;;;;;;;5.63;1.10;;;;;;;;;;5048624;28;20045;-60
2022/09/19 12:37:03;;;;;;;3.88;1.05;;;;;;;;;;5047187;28;20068;-60
2022/09/19 12:39:44;;;;;;;6.88;1.58;;;;;;;;;;5046824;28;20391;-60
2022/09/19 12:42:20;;;;;;;11.20;1.10;;;;;;;;;;5048450;28;20140;-60
2022/09/19 12:44:59;;;;;;;6.50;1.35;;;;;;;;;;5048034;28;20525;-60
2022/09/19 12:47:54;;;;;;;1.23;0.75;;;;;;;;;;5047455;28;20045;-60
2022/09/19 12:50:36;;;;;;;3.80;1.08;;;;;;;;;;5047985;28;20032;-60
2022/09/19 12:53:18;;;;;;;4.13;0.90;;;;;;;;;;5045997;28;20117;-60
2022/09/19 12:55:56;;;;;;;3.67;0.90;;;;;;;;;;5047417;28;20041;-60
2022/09/19 12:58:32;;;;;;;4.82;1.10;;;;;;;;;;5039059;28;20478;-60
2022/09/19 13:01:31;;;;;;;6.32;1.00;;;;;;;;;;5029659;28;20045;-60
2022/09/19 13:04:12;;;;;;;5.80;0.90;;;;;;;;;;5029567;28;20104;-60
2022/09/19 13:06:41;;;;;;;6.38;1.10;;;;;;;;;;5062509;28;20451;-61
2022/09/19 13:09:24;;;;;;;2.22;1.20;;;;;;;;;;5047853;28;20078;-60
2022/09/19 13:11:59;;;;;;;3.63;1.30;;;;;;;;;;5047556;28;20049;-60
2022/09/19 13:14:40;;;;;;;3.70;1.05;;;;;;;;;;5040431;28;20030;-60
2022/09/19 13:25:39;;;;;;;5.50;1.40;;;;;;;;;;5046453;28;20036;-61
2022/09/19 13:28:18;;;;;;;5.20;0.90;;;;;;;;;;5040594;28;20061;-60
2022/09/19 13:30:49;;;;;;;4.30;0.90;;;;;;;;;;5010854;28;20041;-60
2022/09/19 13:33:22;;;;;;;2.63;0.93;;;;;;;;;;5027752;28;20025;-61
2022/09/19 13:35:50;;;;;;;2.15;0.90;;;;;;;;;;5027366;28;20049;-60
2022/09/19 13:38:25;;;;;;;1.55;0.70;;;;;;;;;;5027192;28;20064;-61
2022/09/19 13:41:16;;;;;;;5.03;1.55;;;;;;;;;;5035928;28;20045;-61
2022/09/19 13:44:05;;;;;;;1.77;0.70;;;;;;;;;;5046570;28;20065;-60
2022/09/19 13:46:39;;;;;;;4.13;0.80;;;;;;;;;;5045185;28;20048;-60
2022/09/19 13:49:18;;;;;;;3.10;0.90;;;;;;;;;;5047097;28;20037;-60
2022/09/19 13:51:54;;;;;;;8.57;1.10;;;;;;;;;;5047388;28;20538;-60
2022/09/19 13:54:31;;;;;;;3.58;0.70;;;;;;;;;;5048015;28;20158;-61
2022/09/19 13:57:02;;;;;;;4.05;0.90;;;;;;;;;;5047259;28;20054;-60
2022/09/19 13:59:43;;;;;;;2.92;1.00;;;;;;;;;;5029887;28;20041;-60
2022/09/19 14:02:11;;;;;;;4.32;0.80;;;;;;;;;;5028749;28;20065;-60
2022/09/19 14:04:52;;;;;;;2.08;0.80;;;;;;;;;;5043716;28;20040;-61
2022/09/19 14:07:28;;;;;;;3.83;0.98;;;;;;;;;;5040089;28;20045;-61
2022/09/19 14:10:01;;;;;;;4.35;1.17;;;;;;;;;;5027483;28;20562;-60
2022/09/19 14:12:36;;;;;;;2.80;0.90;;;;;;;;;;5028690;28;20533;-60
2022/09/19 14:15:24;;;;;;;5.40;1.10;;;;;;;;;;5049427;28;20017;-60
2022/09/19 14:18:08;;;;;;;4.45;1.15;;;;;;;;;;5028910;28;20038;-60
2022/09/19 14:20:54;;;;;;;4.85;0.88;;;;;;;;;;5009287;28;20050;-60
2022/09/19 14:23:25;;;;;;;7.53;0.95;;;;;;;;;;5007690;28;20057;-60
2022/09/19 14:26:01;;;;;;;1.85;0.85;;;;;;;;;;5019570;28;20040;-60
2022/09/19 14:28:32;;;;;;;3.42;0.85;;;;;;;;;;5027613;28;20049;-60
2022/09/19 14:31:32;;;;;;;6.15;0.90;;;;;;;;;;5027196;28;20103;-60
2022/09/19 14:34:19;;;;;;;2.42;0.63;;;;;;;;;;5026832;28;20052;-61
2022/09/19 14:36:53;;;;;;;6.28;1.30;;;;;;;;;;5026264;28;20037;-61
2022/09/19 14:39:54;;;;;;;4.55;0.80;;;;;;;;;;5028233;28;20025;-60
2022/09/19 14:42:54;;;;;;;2.90;0.85;;;;;;;;;;5045397;28;20091;-61
2022/09/19 14:45:32;;;;;;;8.50;0.82;;;;;;;;;;5047392;28;20107;-61
2022/09/19 14:48:06;;;;;;;2.10;0.70;;;;;;;;;;5026387;28;20033;-61
2022/09/19 14:50:37;;;;;;;2.97;0.70;;;;;;;;;;5047079;28;20086;-60
2022/09/19 14:53:10;;;;;;;3.65;0.70;;;;;;;;;;5046725;28;20133;-60
2022/09/19 14:55:48;;;;;;;1.33;1.00;;;;;;;;;;5031775;28;20029;-60
2022/09/19 14:58:33;;;;;;;3.38;1.02;;;;;;;;;;5010527;28;20327;-60
2022/09/19 15:01:21;;;;;;;3.60;1.00;;;;;;;;;;5018887;28;20045;-60
2022/09/19 15:03:55;;;;;;;1.55;0.88;;;;;;;;;;5026139;28;20179;-61
2022/09/19 15:06:35;;;;;;;3.30;1.10;;;;;;;;;;5046638;28;20028;-60
2022/09/19 15:09:03;;;;;;;2.25;1.05;;;;;;;;;;5068029;28;20044;-60
2022/09/19 15:11:29;;;;;;;1.85;0.93;;;;;;;;;;5043152;28;20025;-61
2022/09/19 15:13:55;;;;;;;5.13;0.90;;;;;;;;;;5021436;28;20068;-60
2022/09/19 15:16:21;;;;;;;3.08;0.98;;;;;;;;;;5034695;28;20033;-60
2022/09/19 15:18:54;;;;;;;4.47;0.93;;;;;;;;;;5047118;28;20032;-60
2022/09/19 15:21:23;;;;;;;1.88;0.80;;;;;;;;;;5047151;28;20461;-61
2022/09/19 15:23:50;;;;;;;6.13;1.13;;;;;;;;;;5047131;28;20029;-60
2022/09/19 15:26:23;;;;;;;3.80;1.05;;;;;;;;;;5046221;28;20037;-61
2022/09/19 15:29:17;;;;;;;4.53;0.88;;;;;;;;;;5034767;28;20415;-60
2022/09/19 15:31:45;;;;;;;1.60;0.80;;;;;;;;;;5027082;28;20030;-60
2022/09/19 15:34:16;;;;;;;3.85;0.82;;;;;;;;;;5026668;28;20038;-60
2022/09/19 15:36:44;;;;;;;3.60;0.98;;;;;;;;;;5027165;28;20045;-61
2022/09/19 15:39:11;;;;;;;3.72;1.13;;;;;;;;;;5026608;28;20056;-60
2022/09/19 15:41:37;;;;;;;5.82;0.85;;;;;;;;;;5026589;28;20073;-60
2022/09/19 15:44:07;;;;;;;1.25;0.70;;;;;;;;;;5026993;28;20025;-60